BEL5RH EBBR-HKJK
Flight info
| Callsign | BEL5RH |
|---|---|
| Flight time | N/A |
| Altitude | 35000 |
| Route | ROUSY DCT GTQ DCT POGOL DCT LASAT DCT MOROK DCT GILIR DCT GEVEA DCT KOGAS DCT VEVAR DCT BARSO DCT KOLON DCT RARQU DCT NESUL DCT ETOIL DCT CIRTA UM2 AMIRA/N0477F370 UM2 DJA/N0471F390 UB730 DIR UG862 BUN UT325 SIPKI UW325 NN UL433 NAKAT NAKAT4A |
| Aircraft | A333/H-SDE3GHIJ2J3J5M1RVWXY/LB2D1 |
Departure
| Time | N/A |
|---|---|
| Airport | Brussels Airport (EBBR) |
Arrival
| Time | 2026-05-08 04:32 |
|---|---|
| Airport | Jomo Kenyatta International Airport (HKJK) |
| Time | Latitude | Longitude | Altitude | Speed | Heading |
|---|---|---|---|---|---|
| 2026-05-08 02:53 | 4.87306 | 26.54662 | 36956 ft | 481 kts | 133° |
| 2026-05-08 02:53 | 4.85051 | 26.57180 | 36968 ft | 480 kts | 133° |
| 2026-05-08 02:54 | 4.80516 | 26.62242 | 36970 ft | 477 kts | 133° |
| 2026-05-08 02:54 | 4.76029 | 26.67249 | 36956 ft | 480 kts | 133° |
| 2026-05-08 02:55 | 4.69267 | 26.74793 | 36958 ft | 479 kts | 133° |
| 2026-05-08 02:56 | 4.64761 | 26.79816 | 36960 ft | 475 kts | 133° |
| 2026-05-08 02:56 | 4.60307 | 26.84784 | 36970 ft | 470 kts | 133° |
| 2026-05-08 02:57 | 4.55860 | 26.89741 | 36973 ft | 475 kts | 133° |
| 2026-05-08 02:57 | 4.51377 | 26.94739 | 36969 ft | 473 kts | 133° |
| 2026-05-08 02:58 | 4.46946 | 26.99677 | 36962 ft | 475 kts | 133° |
| 2026-05-08 02:58 | 4.42458 | 27.04675 | 36959 ft | 473 kts | 133° |
| 2026-05-08 02:59 | 4.38011 | 27.09631 | 36964 ft | 470 kts | 133° |
| 2026-05-08 02:59 | 4.33541 | 27.14604 | 36962 ft | 472 kts | 132° |
| 2026-05-08 03:00 | 4.29098 | 27.19558 | 36962 ft | 472 kts | 133° |
| 2026-05-08 03:00 | 4.24650 | 27.24509 | 36966 ft | 472 kts | 133° |
| 2026-05-08 03:01 | 4.20201 | 27.29460 | 36965 ft | 473 kts | 133° |
| 2026-05-08 03:01 | 4.15739 | 27.34428 | 36964 ft | 473 kts | 133° |
| 2026-05-08 03:02 | 4.11267 | 27.39402 | 36959 ft | 475 kts | 133° |
| 2026-05-08 03:02 | 4.06773 | 27.44402 | 36982 ft | 475 kts | 132° |
| 2026-05-08 03:03 | 4.02317 | 27.49360 | 36979 ft | 471 kts | 133° |
| 2026-05-08 03:03 | 3.97827 | 27.54352 | 36990 ft | 478 kts | 133° |
| 2026-05-08 03:04 | 3.93352 | 27.59327 | 36986 ft | 473 kts | 133° |
| 2026-05-08 03:04 | 3.88844 | 27.64339 | 36992 ft | 478 kts | 133° |
| 2026-05-08 03:05 | 3.84304 | 27.69386 | 36981 ft | 479 kts | 133° |
| 2026-05-08 03:05 | 3.79784 | 27.74408 | 36989 ft | 478 kts | 133° |
| 2026-05-08 03:06 | 3.75264 | 27.79431 | 36985 ft | 481 kts | 132° |
| 2026-05-08 03:06 | 3.70732 | 27.84465 | 36981 ft | 480 kts | 132° |
| 2026-05-08 03:07 | 3.66205 | 27.89493 | 36979 ft | 478 kts | 132° |
| 2026-05-08 03:07 | 3.61699 | 27.94499 | 36974 ft | 479 kts | 132° |
| 2026-05-08 03:08 | 3.57191 | 27.99505 | 36976 ft | 480 kts | 132° |
| 2026-05-08 03:08 | 3.52655 | 28.04540 | 36980 ft | 479 kts | 132° |
| 2026-05-08 03:09 | 3.48126 | 28.09568 | 36985 ft | 478 kts | 132° |
| 2026-05-08 03:09 | 3.43601 | 28.14591 | 36988 ft | 478 kts | 132° |
| 2026-05-08 03:10 | 3.39106 | 28.19577 | 36996 ft | 477 kts | 132° |
| 2026-05-08 03:10 | 3.34598 | 28.24579 | 37006 ft | 477 kts | 133° |
| 2026-05-08 03:11 | 3.30084 | 28.29588 | 37013 ft | 477 kts | 132° |
| 2026-05-08 03:11 | 3.25598 | 28.34564 | 37014 ft | 477 kts | 133° |
| 2026-05-08 03:12 | 3.21109 | 28.39542 | 37012 ft | 477 kts | 133° |
| 2026-05-08 03:12 | 3.16585 | 28.44559 | 37014 ft | 477 kts | 133° |
| 2026-05-08 03:13 | 3.12085 | 28.49548 | 37008 ft | 475 kts | 133° |
| 2026-05-08 03:13 | 3.07585 | 28.54536 | 37017 ft | 476 kts | 133° |
| 2026-05-08 03:14 | 3.03101 | 28.59508 | 37020 ft | 475 kts | 133° |
| 2026-05-08 03:14 | 2.98620 | 28.64474 | 37015 ft | 474 kts | 133° |
| 2026-05-08 03:15 | 2.94148 | 28.69428 | 37018 ft | 475 kts | 133° |
| 2026-05-08 03:15 | 2.89651 | 28.74412 | 37017 ft | 472 kts | 133° |
| 2026-05-08 03:16 | 2.85218 | 28.79324 | 37021 ft | 472 kts | 133° |
| 2026-05-08 03:16 | 2.80757 | 28.84267 | 37026 ft | 472 kts | 133° |
| 2026-05-08 03:17 | 2.76288 | 28.89217 | 37031 ft | 474 kts | 133° |
| 2026-05-08 03:17 | 2.71800 | 28.94189 | 37032 ft | 473 kts | 133° |
| 2026-05-08 03:18 | 2.67338 | 28.99133 | 37026 ft | 471 kts | 133° |
| 2026-05-08 03:18 | 2.62910 | 29.04035 | 37030 ft | 471 kts | 133° |
| 2026-05-08 03:19 | 2.58462 | 29.08961 | 37040 ft | 471 kts | 133° |
| 2026-05-08 03:19 | 2.54036 | 29.13861 | 37045 ft | 471 kts | 133° |
| 2026-05-08 03:20 | 2.49584 | 29.18790 | 37035 ft | 471 kts | 133° |
| 2026-05-08 03:20 | 2.45137 | 29.23713 | 37032 ft | 472 kts | 133° |
| 2026-05-08 03:21 | 2.40676 | 29.28650 | 37022 ft | 470 kts | 133° |
| 2026-05-08 03:21 | 2.36260 | 29.33538 | 37039 ft | 470 kts | 133° |
| 2026-05-08 03:22 | 2.31819 | 29.38453 | 37048 ft | 470 kts | 133° |
| 2026-05-08 03:22 | 2.27390 | 29.43353 | 37041 ft | 470 kts | 133° |
| 2026-05-08 03:23 | 2.22979 | 29.48235 | 37042 ft | 469 kts | 133° |
| 2026-05-08 03:23 | 2.18546 | 29.53148 | 37045 ft | 469 kts | 133° |
| 2026-05-08 03:24 | 2.14137 | 29.58039 | 37048 ft | 467 kts | 133° |
| 2026-05-08 03:24 | 2.09714 | 29.62944 | 37053 ft | 466 kts | 133° |
| 2026-05-08 03:25 | 2.05343 | 29.67792 | 37049 ft | 466 kts | 133° |
| 2026-05-08 03:25 | 2.00944 | 29.72671 | 37034 ft | 468 kts | 133° |
| 2026-05-08 03:26 | 1.96513 | 29.77595 | 37042 ft | 468 kts | 133° |
| 2026-05-08 03:26 | 1.92153 | 29.82442 | 37049 ft | 466 kts | 133° |
| 2026-05-08 03:27 | 1.87827 | 29.87358 | 37045 ft | 465 kts | 132° |
| 2026-05-08 03:27 | 1.83509 | 29.92278 | 37051 ft | 465 kts | 132° |
| 2026-05-08 03:28 | 1.79205 | 29.97180 | 37057 ft | 465 kts | 132° |
| 2026-05-08 03:28 | 1.74867 | 30.02122 | 37048 ft | 466 kts | 132° |
| 2026-05-08 03:29 | 1.70559 | 30.07028 | 37061 ft | 465 kts | 132° |
| 2026-05-08 03:29 | 1.66216 | 30.11974 | 37082 ft | 465 kts | 131° |
| 2026-05-08 03:30 | 1.59714 | 30.19379 | 37101 ft | 464 kts | 132° |
| 2026-05-08 03:31 | 1.51797 | 30.29780 | 37091 ft | 467 kts | 126° |
| 2026-05-08 03:32 | 1.46145 | 30.37872 | 37074 ft | 465 kts | 126° |
| 2026-05-08 03:32 | 1.42414 | 30.43207 | 37063 ft | 466 kts | 126° |
| 2026-05-08 03:33 | 1.38650 | 30.48589 | 37034 ft | 466 kts | 125° |
| 2026-05-08 03:33 | 1.34914 | 30.53931 | 37027 ft | 465 kts | 125° |
| 2026-05-08 03:34 | 1.31140 | 30.59326 | 37039 ft | 465 kts | 125° |
| 2026-05-08 03:34 | 1.27402 | 30.64669 | 37027 ft | 464 kts | 125° |
| 2026-05-08 03:35 | 1.23725 | 30.70035 | 37062 ft | 464 kts | 124° |
| 2026-05-08 03:35 | 1.20045 | 30.75429 | 37068 ft | 464 kts | 124° |
| 2026-05-08 03:36 | 1.16374 | 30.80808 | 37054 ft | 463 kts | 124° |
| 2026-05-08 03:36 | 1.12675 | 30.86227 | 37098 ft | 466 kts | 124° |
| 2026-05-08 03:37 | 1.08967 | 30.91657 | 37071 ft | 464 kts | 124° |
| 2026-05-08 03:37 | 1.05292 | 30.97041 | 37091 ft | 463 kts | 124° |
| 2026-05-08 03:38 | 1.01608 | 31.02437 | 37112 ft | 464 kts | 124° |
| 2026-05-08 03:38 | 0.97947 | 31.07800 | 37107 ft | 463 kts | 124° |
| 2026-05-08 03:39 | 0.94268 | 31.13191 | 37106 ft | 461 kts | 124° |
| 2026-05-08 03:39 | 0.90592 | 31.18574 | 37100 ft | 463 kts | 124° |
| 2026-05-08 03:40 | 0.86914 | 31.23961 | 37105 ft | 465 kts | 124° |
| 2026-05-08 03:40 | 0.83242 | 31.29337 | 37110 ft | 463 kts | 124° |
| 2026-05-08 03:41 | 0.79565 | 31.34724 | 37116 ft | 464 kts | 124° |
| 2026-05-08 03:41 | 0.75883 | 31.40112 | 37118 ft | 462 kts | 124° |
| 2026-05-08 03:42 | 0.72203 | 31.45504 | 37132 ft | 464 kts | 124° |
| 2026-05-08 03:42 | 0.68499 | 31.50928 | 37139 ft | 465 kts | 124° |
| 2026-05-08 03:43 | 0.64832 | 31.56306 | 37125 ft | 465 kts | 124° |
| 2026-05-08 03:43 | 0.61139 | 31.61745 | 37123 ft | 464 kts | 124° |
| 2026-05-08 03:44 | 0.57479 | 31.67133 | 37108 ft | 466 kts | 125° |
| 2026-05-08 03:44 | 0.53792 | 31.72561 | 37111 ft | 466 kts | 124° |
| 2026-05-08 03:45 | 0.50104 | 31.77990 | 37108 ft | 467 kts | 125° |
| 2026-05-08 03:45 | 0.46414 | 31.83424 | 37107 ft | 467 kts | 124° |
| 2026-05-08 03:46 | 0.42711 | 31.88877 | 37109 ft | 468 kts | 125° |
| 2026-05-08 03:46 | 0.39017 | 31.94316 | 37108 ft | 468 kts | 125° |
| 2026-05-08 03:47 | 0.35303 | 31.99782 | 37123 ft | 469 kts | 125° |
| 2026-05-08 03:47 | 0.31601 | 32.05224 | 37121 ft | 469 kts | 125° |
| 2026-05-08 03:48 | 0.27883 | 32.10675 | 37119 ft | 468 kts | 125° |
| 2026-05-08 03:48 | 0.24175 | 32.16112 | 37122 ft | 471 kts | 125° |
| 2026-05-08 03:49 | 0.20435 | 32.21594 | 37128 ft | 470 kts | 125° |
| 2026-05-08 03:49 | 0.16699 | 32.27071 | 37107 ft | 469 kts | 125° |
| 2026-05-08 03:50 | 0.12987 | 32.32512 | 37080 ft | 471 kts | 125° |
| 2026-05-08 03:50 | 0.09273 | 32.37959 | 37053 ft | 472 kts | 126° |
| 2026-05-08 03:51 | 0.05573 | 32.43458 | 37061 ft | 474 kts | 120° |
| 2026-05-08 03:51 | 0.04295 | 32.46547 | 37027 ft | 475 kts | 107° |
| 2026-05-08 03:51 | 0.03401 | 32.49760 | 37103 ft | 476 kts | 107° |
| 2026-05-08 03:52 | 0.01466 | 32.56101 | 37052 ft | 474 kts | 108° |
| 2026-05-08 03:52 | -0.00497 | 32.62429 | 37063 ft | 475 kts | 108° |
| 2026-05-08 03:53 | -0.02481 | 32.68816 | 37062 ft | 476 kts | 108° |
| 2026-05-08 03:53 | -0.04469 | 32.75211 | 37088 ft | 476 kts | 108° |
| 2026-05-08 03:54 | -0.06442 | 32.81558 | 37086 ft | 475 kts | 108° |
| 2026-05-08 03:54 | -0.08414 | 32.87904 | 37135 ft | 473 kts | 107° |
| 2026-05-08 03:54 | -0.09396 | 32.91065 | 37004 ft | 479 kts | 108° |
| 2026-05-08 03:55 | -0.10386 | 32.94253 | 37123 ft | 473 kts | 108° |
| 2026-05-08 03:55 | -0.12371 | 33.00639 | 37087 ft | 478 kts | 108° |
| 2026-05-08 03:56 | -0.14351 | 33.07006 | 37097 ft | 478 kts | 106° |
| 2026-05-08 03:56 | -0.16322 | 33.13359 | 37109 ft | 479 kts | 108° |
| 2026-05-08 03:57 | -0.18309 | 33.19749 | 37210 ft | 477 kts | 108° |
| 2026-05-08 03:57 | -0.19308 | 33.22965 | 37022 ft | 480 kts | 108° |
| 2026-05-08 03:57 | -0.20294 | 33.26136 | 37169 ft | 476 kts | 108° |
| 2026-05-08 03:58 | -0.22278 | 33.32525 | 37107 ft | 476 kts | 108° |
| 2026-05-08 03:58 | -0.24249 | 33.38864 | 37111 ft | 476 kts | 108° |
| 2026-05-08 03:59 | -0.26221 | 33.45217 | 37092 ft | 475 kts | 109° |
| 2026-05-08 03:59 | -0.28287 | 33.51511 | 37106 ft | 477 kts | 109° |
| 2026-05-08 04:00 | -0.30406 | 33.57864 | 37122 ft | 477 kts | 109° |
| 2026-05-08 04:00 | -0.32513 | 33.64182 | 37118 ft | 477 kts | 109° |
| 2026-05-08 04:01 | -0.34616 | 33.70492 | 37112 ft | 477 kts | 109° |
| 2026-05-08 04:01 | -0.36732 | 33.76839 | 37108 ft | 477 kts | 109° |
| 2026-05-08 04:02 | -0.40814 | 33.89087 | 37119 ft | 476 kts | 109° |
| 2026-05-08 04:03 | -0.42921 | 33.95408 | 37126 ft | 476 kts | 109° |
| 2026-05-08 04:03 | -0.45634 | 34.05019 | 37125 ft | 477 kts | 106° |
| 2026-05-08 04:04 | -0.47405 | 34.11490 | 37147 ft | 478 kts | 106° |
| 2026-05-08 04:04 | -0.49176 | 34.17948 | 37169 ft | 479 kts | 106° |
| 2026-05-08 04:05 | -0.50959 | 34.24447 | 37182 ft | 478 kts | 106° |
| 2026-05-08 04:05 | -0.52730 | 34.30907 | 37180 ft | 478 kts | 106° |
| 2026-05-08 04:06 | -0.54499 | 34.37359 | 37160 ft | 477 kts | 106° |
| 2026-05-08 04:06 | -0.56278 | 34.43848 | 37164 ft | 478 kts | 105° |
| 2026-05-08 04:07 | -0.58049 | 34.50306 | 37166 ft | 479 kts | 105° |
| 2026-05-08 04:07 | -0.59820 | 34.56768 | 37222 ft | 479 kts | 105° |
| 2026-05-08 04:08 | -0.61692 | 34.63183 | 37225 ft | 470 kts | 107° |
| 2026-05-08 04:08 | -0.63572 | 34.69491 | 37228 ft | 469 kts | 107° |
| 2026-05-08 04:09 | -0.65458 | 34.75824 | 37247 ft | 471 kts | 107° |
| 2026-05-08 04:09 | -0.67337 | 34.82126 | 37281 ft | 469 kts | 107° |
| 2026-05-08 04:10 | -0.69205 | 34.88398 | 37298 ft | 469 kts | 107° |
| 2026-05-08 04:10 | -0.71091 | 34.94732 | 37296 ft | 470 kts | 107° |
| 2026-05-08 04:11 | -0.72976 | 35.01058 | 37320 ft | 470 kts | 107° |
| 2026-05-08 04:11 | -0.74857 | 35.07375 | 37321 ft | 469 kts | 107° |
| 2026-05-08 04:12 | -0.76736 | 35.13684 | 37329 ft | 468 kts | 107° |
| 2026-05-08 04:12 | -0.78616 | 35.19996 | 37316 ft | 468 kts | 107° |
| 2026-05-08 04:13 | -0.79543 | 35.23106 | 37104 ft | 474 kts | 107° |
| 2026-05-08 04:13 | -0.80502 | 35.26327 | 36070 ft | 482 kts | 107° |
| 2026-05-08 04:13 | -0.81462 | 35.29552 | 35414 ft | 479 kts | 107° |
| 2026-05-08 04:13 | -0.82418 | 35.32765 | 34689 ft | 478 kts | 107° |
| 2026-05-08 04:14 | -0.83372 | 35.35942 | 34038 ft | 475 kts | 108° |
| 2026-05-08 04:14 | -0.84737 | 35.38978 | 33308 ft | 473 kts | 118° |
| 2026-05-08 04:14 | -0.86248 | 35.41913 | 32557 ft | 473 kts | 117° |
| 2026-05-08 04:14 | -0.87762 | 35.44864 | 31821 ft | 474 kts | 117° |
| 2026-05-08 04:15 | -0.89286 | 35.47841 | 31150 ft | 473 kts | 117° |
| 2026-05-08 04:15 | -0.90789 | 35.50777 | 30570 ft | 470 kts | 117° |
| 2026-05-08 04:15 | -0.92284 | 35.53697 | 30025 ft | 466 kts | 117° |
| 2026-05-08 04:15 | -0.93764 | 35.56591 | 29483 ft | 463 kts | 117° |
| 2026-05-08 04:16 | -0.95217 | 35.59430 | 28897 ft | 460 kts | 117° |
| 2026-05-08 04:16 | -0.96700 | 35.62329 | 28281 ft | 458 kts | 117° |
| 2026-05-08 04:16 | -0.98151 | 35.65162 | 27693 ft | 455 kts | 117° |
| 2026-05-08 04:16 | -0.99594 | 35.67983 | 27154 ft | 452 kts | 117° |
| 2026-05-08 04:17 | -1.01037 | 35.70804 | 26647 ft | 447 kts | 117° |
| 2026-05-08 04:17 | -1.02448 | 35.73561 | 26173 ft | 442 kts | 117° |
| 2026-05-08 04:17 | -1.03863 | 35.76326 | 25684 ft | 437 kts | 117° |
| 2026-05-08 04:17 | -1.05249 | 35.79034 | 25187 ft | 432 kts | 117° |
| 2026-05-08 04:18 | -1.06607 | 35.81688 | 24669 ft | 428 kts | 116° |
| 2026-05-08 04:18 | -1.07981 | 35.84375 | 24123 ft | 424 kts | 116° |
| 2026-05-08 04:18 | -1.09321 | 35.86993 | 23567 ft | 421 kts | 116° |
| 2026-05-08 04:18 | -1.10655 | 35.89601 | 23010 ft | 418 kts | 116° |
| 2026-05-08 04:19 | -1.11973 | 35.92177 | 22469 ft | 414 kts | 116° |
| 2026-05-08 04:19 | -1.13291 | 35.94752 | 21924 ft | 411 kts | 116° |
| 2026-05-08 04:19 | -1.14591 | 35.97296 | 21403 ft | 407 kts | 116° |
| 2026-05-08 04:19 | -1.15878 | 35.99814 | 20886 ft | 402 kts | 116° |
| 2026-05-08 04:20 | -1.17161 | 36.02319 | 20384 ft | 397 kts | 116° |
| 2026-05-08 04:20 | -1.18425 | 36.04791 | 19873 ft | 393 kts | 116° |
| 2026-05-08 04:20 | -1.19656 | 36.07199 | 19379 ft | 388 kts | 116° |
| 2026-05-08 04:20 | -1.20891 | 36.09614 | 18883 ft | 382 kts | 116° |
| 2026-05-08 04:21 | -1.22099 | 36.11974 | 18405 ft | 377 kts | 116° |
| 2026-05-08 04:21 | -1.23286 | 36.14296 | 17928 ft | 372 kts | 116° |
| 2026-05-08 04:21 | -1.24467 | 36.16606 | 17459 ft | 368 kts | 116° |
| 2026-05-08 04:21 | -1.25632 | 36.18884 | 16976 ft | 364 kts | 117° |
| 2026-05-08 04:22 | -1.26782 | 36.21131 | 16495 ft | 360 kts | 117° |
| 2026-05-08 04:22 | -1.27924 | 36.23363 | 16023 ft | 355 kts | 117° |
| 2026-05-08 04:22 | -1.29060 | 36.25585 | 15541 ft | 352 kts | 116° |
| 2026-05-08 04:22 | -1.30164 | 36.27744 | 15071 ft | 349 kts | 116° |
| 2026-05-08 04:23 | -1.31279 | 36.29924 | 14603 ft | 346 kts | 116° |
| 2026-05-08 04:23 | -1.32380 | 36.32079 | 14112 ft | 344 kts | 117° |
| 2026-05-08 04:23 | -1.33462 | 36.34193 | 13628 ft | 342 kts | 116° |
| 2026-05-08 04:23 | -1.34554 | 36.36336 | 13124 ft | 340 kts | 116° |
| 2026-05-08 04:24 | -1.35223 | 36.38569 | 12634 ft | 337 kts | 97° |
| 2026-05-08 04:24 | -1.35432 | 36.40900 | 12181 ft | 334 kts | 95° |
| 2026-05-08 04:24 | -1.35645 | 36.43201 | 11799 ft | 332 kts | 95° |
| 2026-05-08 04:24 | -1.35859 | 36.45511 | 11288 ft | 330 kts | 95° |
| 2026-05-08 04:25 | -1.36071 | 36.47776 | 10893 ft | 326 kts | 95° |
| 2026-05-08 04:25 | -1.36282 | 36.50008 | 10591 ft | 320 kts | 95° |
| 2026-05-08 04:25 | -1.36488 | 36.52200 | 10590 ft | 313 kts | 95° |
| 2026-05-08 04:25 | -1.36692 | 36.54365 | 10438 ft | 303 kts | 95° |
| 2026-05-08 04:26 | -1.36886 | 36.56425 | 10314 ft | 292 kts | 95° |
| 2026-05-08 04:26 | -1.37072 | 36.58399 | 10127 ft | 285 kts | 95° |
| 2026-05-08 04:26 | -1.37260 | 36.60387 | 9813 ft | 284 kts | 95° |
| 2026-05-08 04:26 | -1.37442 | 36.62329 | 9507 ft | 282 kts | 95° |
| 2026-05-08 04:27 | -1.37628 | 36.64302 | 9203 ft | 280 kts | 95° |
| 2026-05-08 04:27 | -1.37808 | 36.66214 | 8930 ft | 278 kts | 95° |
| 2026-05-08 04:27 | -1.37989 | 36.68140 | 8704 ft | 273 kts | 95° |
| 2026-05-08 04:27 | -1.38167 | 36.70029 | 8398 ft | 272 kts | 95° |
| 2026-05-08 04:28 | -1.38345 | 36.71913 | 8139 ft | 270 kts | 95° |
| 2026-05-08 04:28 | -1.38519 | 36.73770 | 7936 ft | 265 kts | 95° |
| 2026-05-08 04:28 | -1.38690 | 36.75580 | 7862 ft | 255 kts | 95° |
| 2026-05-08 04:28 | -1.38853 | 36.77313 | 7768 ft | 247 kts | 95° |
| 2026-05-08 04:29 | -1.39013 | 36.79007 | 7680 ft | 240 kts | 95° |
| 2026-05-08 04:29 | -1.39167 | 36.80650 | 7600 ft | 235 kts | 95° |
| 2026-05-08 04:29 | -1.39219 | 36.82292 | 7511 ft | 235 kts | 80° |
| 2026-05-08 04:29 | -1.38675 | 36.83817 | 7246 ft | 239 kts | 52° |
| 2026-05-08 04:30 | -1.37606 | 36.85104 | 6924 ft | 235 kts | 53° |
| 2026-05-08 04:30 | -1.36649 | 36.86386 | 6579 ft | 223 kts | 53° |
| 2026-05-08 04:30 | -1.35761 | 36.87584 | 6307 ft | 208 kts | 54° |
| 2026-05-08 04:30 | -1.34943 | 36.88695 | 6104 ft | 182 kts | 54° |
| 2026-05-08 04:31 | -1.34245 | 36.89643 | 5830 ft | 158 kts | 54° |
| 2026-05-08 04:31 | -1.33601 | 36.90517 | 5632 ft | 152 kts | 54° |
| 2026-05-08 04:31 | -1.32976 | 36.91360 | 5446 ft | 151 kts | 52° |
| 2026-05-08 04:31 | -1.32351 | 36.92206 | 5325 ft | 138 kts | 52° |
| 2026-05-08 04:32 | -1.31887 | 36.92829 | 5323 ft | 83 kts | 55° |
| 2026-05-08 04:32 | -1.31650 | 36.93151 | 5319 ft | 32 kts | 53° |
| 2026-05-08 04:32 | -1.31556 | 36.93282 | 5316 ft | 22 kts | 62° |
| 2026-05-08 04:32 | -1.31649 | 36.93390 | 5313 ft | 23 kts | 143° |
| 2026-05-08 04:33 | -1.31767 | 36.93476 | 5310 ft | 14 kts | 146° |
| 2026-05-08 04:33 | -1.31838 | 36.93453 | 5311 ft | 10 kts | 239° |
| 2026-05-08 04:33 | -1.31883 | 36.93386 | 5313 ft | 12 kts | 233° |
| 2026-05-08 04:33 | -1.31943 | 36.93306 | 5316 ft | 16 kts | 233° |
| 2026-05-08 04:34 | -1.32023 | 36.93198 | 5318 ft | 22 kts | 233° |
| 2026-05-08 04:34 | -1.32128 | 36.93057 | 5321 ft | 27 kts | 234° |
| 2026-05-08 04:34 | -1.32250 | 36.92889 | 5324 ft | 30 kts | 234° |
| 2026-05-08 04:34 | -1.32375 | 36.92719 | 5325 ft | 29 kts | 234° |
| 2026-05-08 04:35 | -1.32492 | 36.92556 | 5325 ft | 27 kts | 234° |
| 2026-05-08 04:35 | -1.32603 | 36.92405 | 5325 ft | 26 kts | 234° |
| 2026-05-08 04:35 | -1.32696 | 36.92278 | 5325 ft | 18 kts | 234° |
| 2026-05-08 04:35 | -1.32761 | 36.92203 | 5325 ft | 9 kts | 193° |
| 2026-05-08 04:36 | -1.32827 | 36.92232 | 5325 ft | 10 kts | 142° |
| 2026-05-08 04:36 | -1.32889 | 36.92257 | 5324 ft | 10 kts | 187° |
| 2026-05-08 04:36 | -1.32958 | 36.92233 | 5324 ft | 9 kts | 200° |
| 2026-05-08 04:36 | -1.32995 | 36.92261 | 5324 ft | 8 kts | 99° |
| 2026-05-08 04:37 | -1.33003 | 36.92310 | 5322 ft | 1 kts | 103° |
| 2026-05-08 04:37 | -1.33003 | 36.92312 | 5322 ft | 0 kts | 103° |
| 2026-05-08 04:37 | -1.33005 | 36.92318 | 5322 ft | 0 kts | 103° |
| 2026-05-08 04:38 | -1.33003 | 36.92312 | 5322 ft | 2 kts | 103° |
| 2026-05-08 04:38 | -1.33001 | 36.92303 | 5323 ft | 0 kts | 102° |
| 2026-05-08 04:38 | -1.33002 | 36.92307 | 5323 ft | 0 kts | 102° |
| 2026-05-08 04:38 | -1.33003 | 36.92311 | 5322 ft | 1 kts | 102° |
| 2026-05-08 04:39 | -1.33003 | 36.92313 | 5322 ft | 0 kts | 102° |